Time;durP1;ratioP1;P1;durP2;ratioP2;P2;SDS_P1;SDS_P2;PMS_P1;PMS_P2;Temp;Humidity;BMP_temperature;BMP_pressure;BME280_temperature;BME280_humidity;BME280_pressure;Samples;Min_cycle;Max_cycle;Signal;HPM_P1;HPM_P2
2021/08/17 00:01:33;;;;;;;;;33.33;22.67;;;;;;;;5024521;28;45301;-81
2021/08/17 00:03:58;;;;;;;;;22.33;20.33;;;;;;;;5021946;28;45270;-81
2021/08/17 00:06:24;;;;;;;;;19.33;15.00;;;;;;;;5022446;28;45357;-80
2021/08/17 00:08:49;;;;;;;;;25.00;22.33;;;;;;;;5025341;28;45427;-81
2021/08/17 00:11:14;;;;;;;;;29.00;16.00;;;;;;;;5003707;28;45717;-81
2021/08/17 00:13:40;;;;;;;;;27.67;17.00;;;;;;;;4990600;28;46006;-81
2021/08/17 00:16:05;;;;;;;;;25.75;19.50;;;;;;;;5000194;28;45314;-81
2021/08/17 00:18:31;;;;;;;;;20.25;15.75;;;;;;;;5001111;28;45351;-81
2021/08/17 00:20:56;;;;;;;;;25.25;19.25;;;;;;;;5000460;28;45602;-81
2021/08/17 00:23:21;;;;;;;;;19.33;15.00;;;;;;;;5001791;28;45375;-81
2021/08/17 00:25:46;;;;;;;;;22.25;18.50;;;;;;;;5001418;28;45336;-81
2021/08/17 00:28:12;;;;;;;;;23.00;17.00;;;;;;;;5000672;28;45381;-81
2021/08/17 00:30:37;;;;;;;;;17.50;14.75;;;;;;;;5001485;28;45443;-81
2021/08/17 00:33:02;;;;;;;;;22.25;18.50;;;;;;;;5000454;28;46707;-81
2021/08/17 00:35:28;;;;;;;;;20.25;16.25;;;;;;;;4982668;28;45266;-81
2021/08/17 00:37:53;;;;;;;;;22.33;17.33;;;;;;;;5001699;28;45248;-81
2021/08/17 00:40:18;;;;;;;;;23.00;17.50;;;;;;;;5001258;28;45424;-81
2021/08/17 00:42:44;;;;;;;;;30.67;17.33;;;;;;;;4986341;28;48441;-81
2021/08/17 00:45:15;;;;;;;;;23.50;17.25;;;;;;;;5004652;28;45155;-81
2021/08/17 00:47:41;;;;;;;;;14.75;13.00;;;;;;;;5004716;28;45520;-82
2021/08/17 00:50:06;;;;;;;;;13.50;10.00;;;;;;;;5004754;28;45353;-81
2021/08/17 00:52:32;;;;;;;;;16.75;14.00;;;;;;;;5002199;28;46437;-82
2021/08/17 00:54:57;;;;;;;;;16.50;14.00;;;;;;;;5015946;28;45345;-81
2021/08/17 00:57:22;;;;;;;;;16.75;14.50;;;;;;;;5002546;28;45464;-81
2021/08/17 00:59:47;;;;;;;;;19.25;11.75;;;;;;;;4982504;28;45306;-81
2021/08/17 01:02:13;;;;;;;;;23.50;17.75;;;;;;;;5000312;28;45547;-81
2021/08/17 01:04:39;;;;;;;;;22.67;17.00;;;;;;;;4999990;28;45231;-81
2021/08/17 01:07:07;;;;;;;;;14.00;12.25;;;;;;;;4999974;28;45758;-81
2021/08/17 01:09:32;;;;;;;;;21.50;16.25;;;;;;;;5000282;28;45397;-81
2021/08/17 01:11:59;;;;;;;;;19.33;14.67;;;;;;;;5000170;28;45582;-81
2021/08/17 01:14:24;;;;;;;;;20.75;14.00;;;;;;;;4999752;28;45302;-81
2021/08/17 01:16:50;;;;;;;;;20.00;14.33;;;;;;;;4982411;28;45404;-81
2021/08/17 01:19:17;;;;;;;;;21.33;17.00;;;;;;;;5025287;28;45500;-81
2021/08/17 01:21:43;;;;;;;;;16.50;14.25;;;;;;;;5020529;28;46126;-81
2021/08/17 01:24:08;;;;;;;;;24.50;15.00;;;;;;;;5002355;28;45682;-81
2021/08/17 01:26:34;;;;;;;;;19.50;12.25;;;;;;;;5022123;28;45241;-81
2021/08/17 01:28:59;;;;;;;;;19.67;17.33;;;;;;;;5026898;28;45570;-81
2021/08/17 01:31:24;;;;;;;;;23.00;18.50;;;;;;;;5011183;28;45254;-81
2021/08/17 01:33:50;;;;;;;;;18.00;15.25;;;;;;;;5007315;28;45231;-81
2021/08/17 01:36:15;;;;;;;;;17.75;16.50;;;;;;;;5008373;28;45320;-81
2021/08/17 01:38:47;;;;;;;;;15.00;12.67;;;;;;;;5009209;28;45214;-81
2021/08/17 01:41:12;;;;;;;;;20.25;15.00;;;;;;;;4990701;28;47518;-81
2021/08/17 01:43:37;;;;;;;;;17.25;16.50;;;;;;;;5010162;28;45233;-82
2021/08/17 01:46:04;;;;;;;;;22.00;15.00;;;;;;;;5027372;28;45291;-81
2021/08/17 01:48:30;;;;;;;;;19.75;16.00;;;;;;;;5026060;28;45255;-81
2021/08/17 01:50:55;;;;;;;;;14.00;13.75;;;;;;;;5022061;28;45373;-81
2021/08/17 01:53:21;;;;;;;;;18.00;15.33;;;;;;;;5022198;28;45263;-81
2021/08/17 01:55:46;;;;;;;;;21.00;14.75;;;;;;;;5000036;28;45190;-81
2021/08/17 01:58:12;;;;;;;;;16.00;13.33;;;;;;;;5002445;28;45288;-81
2021/08/17 02:00:37;;;;;;;;;14.33;11.33;;;;;;;;5002148;28;45444;-81
2021/08/17 02:03:02;;;;;;;;;18.33;15.33;;;;;;;;5002161;28;45375;-81
2021/08/17 02:05:27;;;;;;;;;21.00;16.33;;;;;;;;5002062;28;45399;-81
2021/08/17 02:07:54;;;;;;;;;16.33;14.00;;;;;;;;5002239;28;45379;-81
2021/08/17 02:10:20;;;;;;;;;18.75;15.50;;;;;;;;4984427;28;47347;-81
2021/08/17 02:12:45;;;;;;;;;18.25;15.00;;;;;;;;5001788;28;45257;-81
2021/08/17 02:15:10;;;;;;;;;19.33;15.67;;;;;;;;5002449;28;45311;-81
2021/08/17 02:17:36;;;;;;;;;20.00;17.00;;;;;;;;5002841;28;45368;-81
2021/08/17 02:20:01;;;;;;;;;18.75;13.50;;;;;;;;4989397;28;47335;-81
2021/08/17 02:22:26;;;;;;;;;16.25;15.50;;;;;;;;4995086;28;45440;-81
2021/08/17 02:24:51;;;;;;;;;19.00;16.50;;;;;;;;5005420;28;45214;-81
2021/08/17 02:27:17;;;;;;;;;18.33;15.33;;;;;;;;5022925;28;45415;-81
2021/08/17 02:29:42;;;;;;;;;18.67;13.00;;;;;;;;5021504;28;45415;-81
2021/08/17 02:32:07;;;;;;;;;22.75;14.75;;;;;;;;5001963;28;45399;-81
2021/08/17 02:34:32;;;;;;;;;17.00;12.33;;;;;;;;5001827;28;45310;-81
2021/08/17 02:36:58;;;;;;;;;15.50;12.00;;;;;;;;5001340;28;45385;-81
2021/08/17 02:39:23;;;;;;;;;17.00;14.33;;;;;;;;5001447;28;45493;-81
2021/08/17 02:41:48;;;;;;;;;14.00;10.50;;;;;;;;5001291;28;45318;-81
2021/08/17 02:44:13;;;;;;;;;13.00;11.33;;;;;;;;4989812;28;45323;-81
2021/08/17 02:46:39;;;;;;;;;13.33;9.67;;;;;;;;5009064;28;45519;-81
2021/08/17 02:49:05;;;;;;;;;16.00;11.67;;;;;;;;5003451;28;48213;-81
2021/08/17 02:51:30;;;;;;;;;14.00;12.75;;;;;;;;5007928;28;45499;-81
2021/08/17 02:53:55;;;;;;;;;16.33;13.33;;;;;;;;5001792;28;45416;-81
2021/08/17 02:56:21;;;;;;;;;15.00;12.67;;;;;;;;4986720;28;45334;-81
2021/08/17 02:58:46;;;;;;;;;15.33;15.33;;;;;;;;5001707;28;45227;-81
2021/08/17 03:01:11;;;;;;;;;18.33;14.00;;;;;;;;5001255;28;45227;-80
2021/08/17 03:03:36;;;;;;;;;21.00;15.67;;;;;;;;5007458;28;45158;-81
2021/08/17 03:06:01;;;;;;;;;19.67;17.67;;;;;;;;5016062;28;45247;-81
2021/08/17 03:08:27;;;;;;;;;20.25;16.00;;;;;;;;4998070;28;46396;-80
2021/08/17 03:10:52;;;;;;;;;17.00;15.00;;;;;;;;5004495;28;45156;-81
2021/08/17 03:13:17;;;;;;;;;20.00;14.67;;;;;;;;5002192;28;45236;-81
2021/08/17 03:15:42;;;;;;;;;18.00;13.33;;;;;;;;5001900;28;45242;-81
2021/08/17 03:18:08;;;;;;;;;20.67;14.00;;;;;;;;5001220;28;46268;-81
2021/08/17 03:20:35;;;;;;;;;18.50;13.00;;;;;;;;5002315;28;45467;-81
2021/08/17 03:23:01;;;;;;;;;17.00;14.00;;;;;;;;4987122;28;45246;-81
2021/08/17 03:25:26;;;;;;;;;24.50;16.25;;;;;;;;5005639;28;45408;-81
2021/08/17 03:27:52;;;;;;;;;16.25;15.00;;;;;;;;5004062;28;45415;-81
2021/08/17 03:30:27;;;;;;;;;19.75;12.50;;;;;;;;4987395;28;45248;-81
2021/08/17 03:32:53;;;;;;;;;17.00;14.00;;;;;;;;4996581;28;45284;-81
2021/08/17 03:35:18;;;;;;;;;15.75;13.00;;;;;;;;5003068;28;45260;-81
2021/08/17 03:37:43;;;;;;;;;16.25;14.75;;;;;;;;5021231;28;45213;-81
2021/08/17 03:40:10;;;;;;;;;12.25;7.00;;;;;;;;5020941;28;45248;-81
2021/08/17 03:42:42;;;;;;;;;17.50;14.00;;;;;;;;5007358;28;45306;-81
2021/08/17 03:45:11;;;;;;;;;16.50;15.25;;;;;;;;5041318;28;44532;-80
2021/08/17 03:47:37;;;;;;;;;16.25;12.50;;;;;;;;5028736;28;45225;-81
2021/08/17 03:50:04;;;;;;;;;18.50;12.25;;;;;;;;5005041;28;45203;-81
2021/08/17 03:52:30;;;;;;;;;13.00;11.50;;;;;;;;5020719;28;45373;-81
2021/08/17 03:54:55;;;;;;;;;17.25;15.50;;;;;;;;5020344;28;45279;-81
2021/08/17 03:57:20;;;;;;;;;20.67;13.00;;;;;;;;5003775;28;46418;-81
2021/08/17 03:59:45;;;;;;;;;17.33;11.33;;;;;;;;4983244;28;45338;-82
2021/08/17 04:02:10;;;;;;;;;16.33;13.00;;;;;;;;5000844;28;45298;-81
2021/08/17 04:04:36;;;;;;;;;14.75;12.50;;;;;;;;5000701;28;45234;-81
2021/08/17 04:07:01;;;;;;;;;14.00;11.00;;;;;;;;5000208;28;46556;-81
2021/08/17 04:09:26;;;;;;;;;17.25;13.75;;;;;;;;4982409;28;45992;-81
2021/08/17 04:11:51;;;;;;;;;17.00;13.00;;;;;;;;5000740;28;45356;-81
2021/08/17 04:14:17;;;;;;;;;16.25;14.00;;;;;;;;4999995;28;45487;-81
2021/08/17 04:16:42;;;;;;;;;19.00;12.50;;;;;;;;5000221;28;46110;-81
2021/08/17 04:19:07;;;;;;;;;17.75;13.25;;;;;;;;4999917;28;45389;-81
2021/08/17 04:21:32;;;;;;;;;18.00;11.75;;;;;;;;4982278;28;45239;-81
2021/08/17 04:23:59;;;;;;;;;20.33;14.00;;;;;;;;5000031;28;45545;-81
2021/08/17 04:26:24;;;;;;;;;13.25;11.00;;;;;;;;4982641;28;48254;-81
2021/08/17 04:28:49;;;;;;;;;19.25;11.50;;;;;;;;4999929;28;45299;-81
2021/08/17 04:31:15;;;;;;;;;13.33;11.00;;;;;;;;5000077;28;45321;-81
2021/08/17 04:33:40;;;;;;;;;15.67;13.67;;;;;;;;4999723;28;45170;-81
2021/08/17 04:36:05;;;;;;;;;17.00;15.00;;;;;;;;4999864;28;46304;-81
2021/08/17 04:38:30;;;;;;;;;13.00;11.75;;;;;;;;4999677;28;45235;-81
2021/08/17 04:40:55;;;;;;;;;15.33;12.33;;;;;;;;4982553;28;45369;-81
2021/08/17 04:43:21;;;;;;;;;19.00;13.00;;;;;;;;5000056;28;45211;-81
2021/08/17 04:45:47;;;;;;;;;15.50;12.75;;;;;;;;5000344;28;45383;-81
2021/08/17 04:48:12;;;;;;;;;19.00;13.00;;;;;;;;4982268;28;45389;-81
2021/08/17 04:50:37;;;;;;;;;18.00;12.00;;;;;;;;4999955;28;45367;-81
2021/08/17 04:53:03;;;;;;;;;18.33;14.33;;;;;;;;4999780;28;45461;-81
2021/08/17 04:55:29;;;;;;;;;14.50;12.50;;;;;;;;4999778;28;45438;-81
2021/08/17 04:57:54;;;;;;;;;16.67;11.00;;;;;;;;4999891;28;45306;-81
2021/08/17 05:00:20;;;;;;;;;15.50;13.50;;;;;;;;4982652;28;45293;-81
2021/08/17 05:02:45;;;;;;;;;17.25;12.50;;;;;;;;5001546;28;45484;-81
2021/08/17 05:05:11;;;;;;;;;16.25;13.25;;;;;;;;5003360;28;45359;-81
2021/08/17 05:07:37;;;;;;;;;18.00;13.00;;;;;;;;4985652;28;45322;-81
2021/08/17 05:10:03;;;;;;;;;17.25;13.75;;;;;;;;5004000;28;45378;-81
2021/08/17 05:12:29;;;;;;;;;16.75;12.25;;;;;;;;5003227;28;45511;-81
2021/08/17 05:14:54;;;;;;;;;19.00;13.00;;;;;;;;5003283;28;45282;-81
2021/08/17 05:17:19;;;;;;;;;14.33;13.00;;;;;;;;4985368;28;45611;-80
2021/08/17 05:19:44;;;;;;;;;12.67;11.67;;;;;;;;5004002;28;45172;-81
2021/08/17 05:22:09;;;;;;;;;16.67;11.67;;;;;;;;5004214;28;45136;-81
2021/08/17 05:24:34;;;;;;;;;21.33;13.33;;;;;;;;4992414;28;47212;-81
2021/08/17 05:27:00;;;;;;;;;15.00;13.00;;;;;;;;5005201;28;45439;-81
2021/08/17 05:29:25;;;;;;;;;13.67;12.00;;;;;;;;5026958;28;45377;-81
2021/08/17 05:31:50;;;;;;;;;18.67;11.00;;;;;;;;5010633;28;45627;-81
2021/08/17 05:34:15;;;;;;;;;16.00;13.00;;;;;;;;5010398;28;45409;-81
2021/08/17 05:36:41;;;;;;;;;17.33;13.00;;;;;;;;5008627;28;45327;-81
2021/08/17 05:39:06;;;;;;;;;18.67;12.00;;;;;;;;4990570;28;45589;-81
2021/08/17 05:41:31;;;;;;;;;17.00;12.33;;;;;;;;5007001;28;45266;-81
2021/08/17 05:43:56;;;;;;;;;18.33;13.00;;;;;;;;4995922;28;48640;-81
2021/08/17 05:46:21;;;;;;;;;20.33;15.00;;;;;;;;4988747;28;45221;-81
2021/08/17 05:48:47;;;;;;;;;17.33;14.00;;;;;;;;5023689;28;45222;-81
2021/08/17 05:51:12;;;;;;;;;14.00;11.33;;;;;;;;5010255;28;45389;-81
2021/08/17 05:53:37;;;;;;;;;13.25;13.25;;;;;;;;5026033;28;46099;-81
2021/08/17 05:56:03;;;;;;;;;12.00;9.00;;;;;;;;5022897;28;45485;-81
2021/08/17 05:58:28;;;;;;;;;22.25;11.75;;;;;;;;5014612;28;44678;-81
2021/08/17 06:00:53;;;;;;;;;13.00;11.33;;;;;;;;5015556;28;45281;-81
2021/08/17 06:03:18;;;;;;;;;12.00;10.25;;;;;;;;5017079;28;45360;-81
2021/08/17 06:05:43;;;;;;;;;14.75;12.75;;;;;;;;5009821;28;45501;-81
2021/08/17 06:08:09;;;;;;;;;14.33;12.67;;;;;;;;5007440;28;45412;-81
2021/08/17 06:10:34;;;;;;;;;11.75;11.00;;;;;;;;5010039;28;45353;-80
2021/08/17 06:12:59;;;;;;;;;14.67;12.00;;;;;;;;5007744;28;45491;-81
2021/08/17 06:15:24;;;;;;;;;18.00;13.67;;;;;;;;5008125;28;45344;-81
2021/08/17 06:17:50;;;;;;;;;16.33;13.33;;;;;;;;5009439;28;45381;-80
2021/08/17 06:20:15;;;;;;;;;14.25;12.50;;;;;;;;5017341;28;44718;-81
2021/08/17 06:22:40;;;;;;;;;16.25;11.75;;;;;;;;5023340;28;45423;-80
2021/08/17 06:25:06;;;;;;;;;16.75;13.50;;;;;;;;5024641;28;45426;-81
2021/08/17 06:27:33;;;;;;;;;21.25;13.75;;;;;;;;5025850;28;45486;-80
2021/08/17 06:29:58;;;;;;;;;15.00;10.75;;;;;;;;5023542;28;45473;-81
2021/08/17 06:32:24;;;;;;;;;16.33;12.67;;;;;;;;5007895;28;45291;-81
2021/08/17 06:34:49;;;;;;;;;14.67;12.00;;;;;;;;5012654;28;45317;-80
2021/08/17 06:37:14;;;;;;;;;17.75;12.75;;;;;;;;5000373;28;44721;-80
2021/08/17 06:39:39;;;;;;;;;14.67;10.33;;;;;;;;4987556;28;45261;-81
2021/08/17 06:42:05;;;;;;;;;11.67;9.67;;;;;;;;5004215;28;45368;-81
2021/08/17 06:44:30;;;;;;;;;12.75;12.50;;;;;;;;5008409;28;45185;-81
2021/08/17 06:46:56;;;;;;;;;16.67;13.33;;;;;;;;5003648;28;45184;-80
2021/08/17 06:49:21;;;;;;;;;17.00;14.00;;;;;;;;4985617;28;45553;-80
2021/08/17 06:51:46;;;;;;;;;17.75;10.75;;;;;;;;5000971;28;48199;-80
2021/08/17 06:54:11;;;;;;;;;14.00;10.67;;;;;;;;5026935;28;45313;-80
2021/08/17 06:56:37;;;;;;;;;10.00;8.75;;;;;;;;4996405;28;45429;-81
2021/08/17 06:59:02;;;;;;;;;16.50;11.25;;;;;;;;4988304;28;45409;-81
2021/08/17 07:01:27;;;;;;;;;15.00;10.25;;;;;;;;4988117;28;47254;-81
2021/08/17 07:03:52;;;;;;;;;12.00;11.00;;;;;;;;4988255;28;45143;-81
2021/08/17 07:06:18;;;;;;;;;14.00;13.00;;;;;;;;5006413;28;45448;-81
2021/08/17 07:08:43;;;;;;;;;13.50;11.00;;;;;;;;4985624;28;45417;-81
2021/08/17 07:11:08;;;;;;;;;23.00;14.33;;;;;;;;4985476;28;48359;-80
2021/08/17 07:13:33;;;;;;;;;13.00;11.33;;;;;;;;5010893;28;45402;-81
2021/08/17 07:16:00;;;;;;;;;10.67;9.00;;;;;;;;5002337;28;45436;-81
2021/08/17 07:18:25;;;;;;;;;13.00;10.50;;;;;;;;5009563;28;45427;-81
2021/08/17 07:20:50;;;;;;;;;13.25;11.75;;;;;;;;5021654;28;46588;-81
2021/08/17 07:23:15;;;;;;;;;16.25;10.50;;;;;;;;5003743;28;45246;-81
2021/08/17 07:25:42;;;;;;;;;14.00;10.25;;;;;;;;5020707;28;45238;-81
2021/08/17 07:28:10;;;;;;;;;15.75;10.50;;;;;;;;5021653;28;45372;-81
2021/08/17 07:30:35;;;;;;;;;14.00;10.00;;;;;;;;5014346;28;45376;-81
2021/08/17 07:33:00;;;;;;;;;12.00;10.00;;;;;;;;4983950;28;45931;-81
2021/08/17 07:35:26;;;;;;;;;14.67;13.33;;;;;;;;5002193;28;45369;-81
2021/08/17 07:37:51;;;;;;;;;12.50;11.00;;;;;;;;4984452;28;45172;-81
2021/08/17 07:40:17;;;;;;;;;13.50;10.25;;;;;;;;5003317;28;45438;-81
2021/08/17 07:42:43;;;;;;;;;13.75;10.00;;;;;;;;5021925;28;45173;-81
2021/08/17 07:45:09;;;;;;;;;13.75;10.75;;;;;;;;5021765;28;45422;-81
2021/08/17 07:47:34;;;;;;;;;12.75;10.75;;;;;;;;5021420;28;45317;-82
2021/08/17 07:49:59;;;;;;;;;11.25;8.25;;;;;;;;5021929;28;46207;-82
2021/08/17 07:52:25;;;;;;;;;10.00;9.00;;;;;;;;5022766;28;45308;-82
2021/08/17 07:54:50;;;;;;;;;9.67;9.00;;;;;;;;5007005;28;45262;-82
2021/08/17 07:57:15;;;;;;;;;12.67;11.00;;;;;;;;4991101;28;45695;-82
2021/08/17 07:59:40;;;;;;;;;12.67;9.67;;;;;;;;5005453;28;45378;-82
2021/08/17 08:02:06;;;;;;;;;12.00;8.67;;;;;;;;5005556;28;45485;-82
2021/08/17 08:04:31;;;;;;;;;6.50;5.25;;;;;;;;4986484;28;45404;-83
2021/08/17 08:06:56;;;;;;;;;11.00;7.33;;;;;;;;4984703;28;45571;-83
2021/08/17 08:09:21;;;;;;;;;14.25;7.25;;;;;;;;5001132;28;45485;-83
2021/08/17 08:11:47;;;;;;;;;9.67;7.33;;;;;;;;4984642;28;45852;-83
2021/08/17 08:14:12;;;;;;;;;7.75;7.75;;;;;;;;5001666;28;45505;-83
2021/08/17 08:16:37;;;;;;;;;11.25;6.25;;;;;;;;5001542;28;45433;-83
2021/08/17 08:19:04;;;;;;;;;7.25;7.00;;;;;;;;5004727;28;46515;-83
2021/08/17 08:21:32;;;;;;;;;11.25;7.75;;;;;;;;5004405;28;45223;-84
2021/08/17 08:23:57;;;;;;;;;7.00;7.00;;;;;;;;4987182;28;45211;-84
2021/08/17 08:26:22;;;;;;;;;11.67;8.67;;;;;;;;5005941;28;45575;-84
2021/08/17 08:28:47;;;;;;;;;10.00;7.00;;;;;;;;4999544;28;47301;-82
2021/08/17 08:31:12;;;;;;;;;10.00;9.33;;;;;;;;4994494;28;45227;-82
2021/08/17 08:33:38;;;;;;;;;14.00;9.67;;;;;;;;5005364;28;45413;-82
2021/08/17 08:36:03;;;;;;;;;8.67;8.67;;;;;;;;4987591;28;45335;-83
2021/08/17 08:38:28;;;;;;;;;7.00;6.25;;;;;;;;5009899;28;45268;-83
2021/08/17 08:40:54;;;;;;;;;12.00;8.00;;;;;;;;5008091;28;45345;-83
2021/08/17 08:43:20;;;;;;;;;12.00;8.50;;;;;;;;5006190;28;45353;-83
2021/08/17 08:45:47;;;;;;;;;10.00;8.50;;;;;;;;5004971;28;45396;-83
2021/08/17 08:48:13;;;;;;;;;10.00;7.50;;;;;;;;4986603;28;46136;-83
2021/08/17 08:50:40;;;;;;;;;7.75;6.75;;;;;;;;5023062;28;45242;-83
2021/08/17 08:53:06;;;;;;;;;10.50;8.00;;;;;;;;5024599;28;45164;-82
2021/08/17 08:55:31;;;;;;;;;15.75;9.50;;;;;;;;5021653;28;45159;-83
2021/08/17 08:57:56;;;;;;;;;9.00;6.33;;;;;;;;5004315;28;45381;-82
2021/08/17 09:00:22;;;;;;;;;9.25;6.00;;;;;;;;5003692;28;45159;-82
2021/08/17 09:02:49;;;;;;;;;10.50;8.00;;;;;;;;4986149;28;45247;-82
2021/08/17 09:05:16;;;;;;;;;11.00;9.50;;;;;;;;5003350;28;45489;-82
2021/08/17 09:07:43;;;;;;;;;11.00;9.00;;;;;;;;5003754;28;46000;-82
2021/08/17 09:10:13;;;;;;;;;9.25;8.25;;;;;;;;5003392;28;45305;-82
2021/08/17 09:12:40;;;;;;;;;7.00;6.75;;;;;;;;5003637;28;45400;-82
2021/08/17 09:15:07;;;;;;;;;8.00;8.00;;;;;;;;4973265;28;45407;-82
2021/08/17 09:17:32;;;;;;;;;9.75;8.00;;;;;;;;4985523;28;47102;-82
2021/08/17 09:19:58;;;;;;;;;11.00;9.00;;;;;;;;5004058;28;45411;-82
2021/08/17 09:22:24;;;;;;;;;11.50;7.00;;;;;;;;5005266;28;45165;-82
2021/08/17 09:24:53;;;;;;;;;9.75;7.50;;;;;;;;4986144;28;45597;-82
2021/08/17 09:27:23;;;;;;;;;10.25;7.25;;;;;;;;4986624;28;47389;-82
2021/08/17 09:29:52;;;;;;;;;8.25;8.00;;;;;;;;4986663;28;45963;-82
2021/08/17 09:32:18;;;;;;;;;11.25;7.75;;;;;;;;4988176;28;45359;-82
2021/08/17 09:34:45;;;;;;;;;9.00;7.25;;;;;;;;4995638;28;45537;-82
2021/08/17 09:37:13;;;;;;;;;7.50;6.00;;;;;;;;5007247;28;45631;-82
2021/08/17 09:39:46;;;;;;;;;8.50;7.00;;;;;;;;5008104;28;45184;-82
2021/08/17 09:42:12;;;;;;;;;6.50;6.50;;;;;;;;5007063;28;45422;-82
2021/08/17 09:44:37;;;;;;;;;8.00;7.00;;;;;;;;5025944;28;45225;-82
2021/08/17 09:47:02;;;;;;;;;9.25;8.00;;;;;;;;5025732;28;46383;-82
2021/08/17 09:49:30;;;;;;;;;12.75;8.25;;;;;;;;5032941;28;45327;-82
2021/08/17 09:51:56;;;;;;;;;8.00;7.50;;;;;;;;5034493;28;44609;-81
2021/08/17 09:54:22;;;;;;;;;7.75;7.00;;;;;;;;5013264;28;44993;-81
2021/08/17 09:56:55;;;;;;;;;8.00;8.00;;;;;;;;4992924;28;48193;-81
2021/08/17 09:59:20;;;;;;;;;6.50;6.00;;;;;;;;5004631;28;45218;-81
2021/08/17 10:01:46;;;;;;;;;10.00;9.00;;;;;;;;5021981;28;45221;-81
2021/08/17 10:04:13;;;;;;;;;9.00;7.50;;;;;;;;5023175;28;45381;-81
2021/08/17 10:06:39;;;;;;;;;9.75;9.25;;;;;;;;5004358;28;46511;-81
2021/08/17 10:09:04;;;;;;;;;8.50;8.50;;;;;;;;5022622;28;44798;-81
2021/08/17 10:11:30;;;;;;;;;12.25;9.00;;;;;;;;5004387;28;45625;-81
2021/08/17 10:13:56;;;;;;;;;13.75;8.00;;;;;;;;4990171;28;45560;-81
2021/08/17 10:16:21;;;;;;;;;9.75;8.00;;;;;;;;4984752;28;48460;-81
2021/08/17 10:18:46;;;;;;;;;10.33;8.00;;;;;;;;5002312;28;45392;-81
2021/08/17 10:21:16;;;;;;;;;9.25;7.75;;;;;;;;5002113;28;45393;-82
2021/08/17 10:23:44;;;;;;;;;11.00;8.25;;;;;;;;5002151;28;45404;-81
2021/08/17 10:26:24;;;;;;;;;9.00;7.00;;;;;;;;4984312;28;47375;-82
2021/08/17 10:28:49;;;;;;;;;11.75;8.50;;;;;;;;5002165;28;45305;-82
2021/08/17 10:31:14;;;;;;;;;6.67;6.00;;;;;;;;5001955;28;45201;-82
2021/08/17 10:33:41;;;;;;;;;12.33;9.00;;;;;;;;4984199;28;45369;-82
2021/08/17 10:36:08;;;;;;;;;9.75;8.50;;;;;;;;5001565;28;45529;-82
2021/08/17 10:38:34;;;;;;;;;11.00;9.00;;;;;;;;5001581;28;45435;-82
2021/08/17 10:41:02;;;;;;;;;6.75;2.75;;;;;;;;4984131;28;45346;-82
2021/08/17 10:43:27;;;;;;;;;8.25;7.00;;;;;;;;4984055;28;45793;-82
2021/08/17 10:45:58;;;;;;;;;11.33;7.67;;;;;;;;5001875;28;45502;-82
2021/08/17 10:48:42;;;;;;;;;9.25;9.00;;;;;;;;4983789;28;45410;-82
2021/08/17 10:51:08;;;;;;;;;12.00;9.00;;;;;;;;5001770;28;45388;-82
2021/08/17 10:53:40;;;;;;;;;9.00;9.00;;;;;;;;4983875;28;45408;-82
2021/08/17 10:56:13;;;;;;;;;9.75;8.00;;;;;;;;5001472;28;46079;-82
2021/08/17 10:58:42;;;;;;;;;12.75;9.25;;;;;;;;5001426;28;45414;-81
2021/08/17 11:01:08;;;;;;;;;7.50;7.50;;;;;;;;5001652;28;45162;-81
2021/08/17 11:03:38;;;;;;;;;14.00;11.00;;;;;;;;5001657;28;45584;-81
2021/08/17 11:06:04;;;;;;;;;11.00;7.00;;;;;;;;5001161;28;46527;-82
2021/08/17 11:08:32;;;;;;;;;10.25;8.50;;;;;;;;5001571;28;45258;-81
2021/08/17 11:11:02;;;;;;;;;10.50;8.75;;;;;;;;4983848;28;45245;-82
2021/08/17 11:13:27;;;;;;;;;12.00;10.00;;;;;;;;4985246;28;45477;-82
2021/08/17 11:16:08;;;;;;;;;8.75;7.50;;;;;;;;5017398;28;45399;-81
2021/08/17 11:18:54;;;;;;;;;9.75;7.75;;;;;;;;5022327;28;45399;-82
2021/08/17 11:21:30;;;;;;;;;11.75;10.00;;;;;;;;4985015;28;45551;-81
2021/08/17 11:24:13;;;;;;;;;8.75;7.50;;;;;;;;5002836;28;45444;-82
2021/08/17 11:26:41;;;;;;;;;12.50;9.00;;;;;;;;5001880;28;46181;-82
2021/08/17 11:29:06;;;;;;;;;8.50;7.25;;;;;;;;4983822;28;45397;-82
2021/08/17 11:31:31;;;;;;;;;11.25;9.00;;;;;;;;4984355;28;45457;-82
2021/08/17 11:34:17;;;;;;;;;9.25;8.75;;;;;;;;5017717;28;45544;-82
2021/08/17 11:36:48;;;;;;;;;10.25;10.00;;;;;;;;5021631;28;46565;-82
2021/08/17 11:39:20;;;;;;;;;10.00;10.00;;;;;;;;5022147;28;45729;-82
2021/08/17 11:41:46;;;;;;;;;7.75;7.00;;;;;;;;5007877;28;45356;-82
2021/08/17 11:44:12;;;;;;;;;9.25;6.25;;;;;;;;5007883;28;45528;-82
2021/08/17 11:46:38;;;;;;;;;8.00;6.75;;;;;;;;5025094;28;45492;-82
2021/08/17 11:49:18;;;;;;;;;9.50;7.50;;;;;;;;5025508;28;45310;-82
2021/08/17 11:51:44;;;;;;;;;9.00;8.00;;;;;;;;5025280;28;45559;-82
2021/08/17 11:54:12;;;;;;;;;6.50;6.50;;;;;;;;5023793;28;45179;-82
2021/08/17 11:56:37;;;;;;;;;7.00;7.00;;;;;;;;5009803;28;45344;-82
2021/08/17 11:59:03;;;;;;;;;7.00;7.00;;;;;;;;5000809;28;45199;-82
2021/08/17 12:01:28;;;;;;;;;7.25;3.50;;;;;;;;5000497;28;45302;-82
2021/08/17 12:04:04;;;;;;;;;11.33;8.00;;;;;;;;5000718;28;45456;-82
2021/08/17 12:06:29;;;;;;;;;7.25;7.00;;;;;;;;5000862;28;45401;-82
2021/08/17 12:09:14;;;;;;;;;7.50;7.50;;;;;;;;5003747;28;45325;-81
2021/08/17 12:11:58;;;;;;;;;7.00;6.00;;;;;;;;5012701;28;45400;-83
2021/08/17 12:14:24;;;;;;;;;9.50;7.25;;;;;;;;5008945;28;45333;-81
2021/08/17 12:16:56;;;;;;;;;11.75;7.75;;;;;;;;5003593;28;45407;-81
2021/08/17 12:19:21;;;;;;;;;6.00;6.00;;;;;;;;5006429;28;45291;-80
2021/08/17 12:21:46;;;;;;;;;10.00;8.00;;;;;;;;5013273;28;45182;-81
2021/08/17 12:24:27;;;;;;;;;9.00;7.00;;;;;;;;5013123;28;45445;-81
2021/08/17 12:26:54;;;;;;;;;6.50;5.00;;;;;;;;5021245;28;46234;-81
2021/08/17 12:29:23;;;;;;;;;8.25;6.25;;;;;;;;5010253;28;44803;-81
2021/08/17 12:31:49;;;;;;;;;7.75;4.00;;;;;;;;4984463;28;45460;-81
2021/08/17 12:34:14;;;;;;;;;8.50;5.25;;;;;;;;5005539;28;45367;-81
2021/08/17 12:36:44;;;;;;;;;11.00;7.00;;;;;;;;5003674;28;47973;-82
2021/08/17 12:39:13;;;;;;;;;7.50;5.50;;;;;;;;5021412;28;45390;-81
2021/08/17 12:41:52;;;;;;;;;9.75;6.50;;;;;;;;5020989;28;45299;-81
2021/08/17 12:44:19;;;;;;;;;4.25;4.25;;;;;;;;5021133;28;45490;-81
2021/08/17 12:47:02;;;;;;;;;7.00;5.00;;;;;;;;5006061;28;46623;-81
2021/08/17 12:49:37;;;;;;;;;6.00;6.00;;;;;;;;5000562;28;45435;-81
2021/08/17 12:52:18;;;;;;;;;6.75;5.50;;;;;;;;5014265;28;45380;-81
2021/08/17 12:54:43;;;;;;;;;7.00;5.00;;;;;;;;5000548;28;45544;-81
2021/08/17 12:57:08;;;;;;;;;7.00;5.67;;;;;;;;5000348;28;46463;-81
2021/08/17 12:59:33;;;;;;;;;5.67;4.00;;;;;;;;4982828;28;45389;-81
2021/08/17 13:01:59;;;;;;;;;6.00;4.67;;;;;;;;5002060;28;45300;-81
2021/08/17 13:04:24;;;;;;;;;4.67;4.67;;;;;;;;5013986;28;45435;-81
2021/08/17 13:06:49;;;;;;;;;6.00;4.00;;;;;;;;4992752;28;46558;-81
2021/08/17 13:09:14;;;;;;;;;5.00;4.00;;;;;;;;4983597;28;45490;-81
2021/08/17 13:11:39;;;;;;;;;7.00;4.00;;;;;;;;4983225;28;45529;-81
2021/08/17 13:14:05;;;;;;;;;6.25;6.25;;;;;;;;5013527;28;45344;-81
2021/08/17 13:16:30;;;;;;;;;6.25;5.00;;;;;;;;5019749;28;45473;-81
2021/08/17 13:18:55;;;;;;;;;6.00;4.00;;;;;;;;5019936;28;45357;-81
2021/08/17 13:21:21;;;;;;;;;6.50;4.00;;;;;;;;5001490;28;45476;-81
2021/08/17 13:23:46;;;;;;;;;4.33;4.33;;;;;;;;5003429;28;45392;-82
2021/08/17 13:26:11;;;;;;;;;5.25;3.75;;;;;;;;4980340;28;46092;-81
2021/08/17 13:28:36;;;;;;;;;6.33;3.33;;;;;;;;5027125;28;45316;-81
2021/08/17 13:31:01;;;;;;;;;4.33;4.00;;;;;;;;5016566;28;45586;-81
2021/08/17 13:33:27;;;;;;;;;4.67;4.00;;;;;;;;4989526;28;45440;-81
2021/08/17 13:35:52;;;;;;;;;6.25;4.00;;;;;;;;5006786;28;45424;-81
2021/08/17 13:38:17;;;;;;;;;5.00;5.00;;;;;;;;4989620;28;45945;-81
2021/08/17 13:40:44;;;;;;;;;4.00;4.00;;;;;;;;4986599;28;45373;-81
2021/08/17 13:43:09;;;;;;;;;3.75;3.00;;;;;;;;5003751;28;45497;-81
2021/08/17 13:45:34;;;;;;;;;6.50;4.75;;;;;;;;5003108;28;46567;-81
2021/08/17 13:47:59;;;;;;;;;3.50;3.50;;;;;;;;5004284;28;45197;-81
2021/08/17 13:50:25;;;;;;;;;6.33;5.00;;;;;;;;4986142;28;45296;-82
2021/08/17 13:52:50;;;;;;;;;5.67;3.67;;;;;;;;4985562;28;45207;-82
2021/08/17 13:55:15;;;;;;;;;6.00;5.00;;;;;;;;5004113;28;45432;-82
2021/08/17 13:57:40;;;;;;;;;5.50;4.00;;;;;;;;5003469;28;45188;-82
2021/08/17 14:00:06;;;;;;;;;4.00;4.00;;;;;;;;4985447;28;45229;-82
2021/08/17 14:02:31;;;;;;;;;6.00;4.00;;;;;;;;5003325;28;45463;-81
2021/08/17 14:04:56;;;;;;;;;8.50;6.25;;;;;;;;4986128;28;47166;-82
2021/08/17 14:07:22;;;;;;;;;4.67;4.00;;;;;;;;5004137;28;45441;-81
2021/08/17 14:09:47;;;;;;;;;7.33;3.00;;;;;;;;5002849;28;45567;-82
2021/08/17 14:12:12;;;;;;;;;4.00;4.00;;;;;;;;4986182;28;45224;-82
2021/08/17 14:14:37;;;;;;;;;4.00;4.00;;;;;;;;5005138;28;46196;-81
2021/08/17 14:17:03;;;;;;;;;3.50;3.50;;;;;;;;4985346;28;45397;-82
2021/08/17 14:19:28;;;;;;;;;6.00;3.50;;;;;;;;5002565;28;45504;-81
2021/08/17 14:21:53;;;;;;;;;6.50;4.75;;;;;;;;5014637;28;45256;-82